Time;durP1;ratioP1;P1;durP2;ratioP2;P2;SDS_P1;SDS_P2;PMS_P1;PMS_P2;Temp;Humidity;BMP_temperature;BMP_pressure;BME280_temperature;BME280_humidity;BME280_pressure;Samples;Min_cycle;Max_cycle;Signal;HPM_P1;HPM_P2
2021/10/10 00:02:47;;;;;;;7.69;6.05;;;;;;;5.29;86.59;100315.69;2331716;66;40645;-81
2021/10/10 00:05:50;;;;;;;8.95;5.97;;;;;;;5.26;86.93;100309.56;2337539;68;20252;-81
2021/10/10 00:08:53;;;;;;;7.81;5.64;;;;;;;5.25;87.20;100316.41;2334692;68;20300;-81
2021/10/10 00:11:56;;;;;;;11.49;6.45;;;;;;;5.24;87.24;100317.25;2339079;68;20268;-80
2021/10/10 00:14:59;;;;;;;8.93;6.13;;;;;;;5.22;87.35;100318.03;2338331;68;20252;-81
2021/10/10 00:18:02;;;;;;;6.64;5.32;;;;;;;5.16;87.05;100314.41;2338774;67;24636;-81
2021/10/10 00:21:05;;;;;;;8.00;5.61;;;;;;;5.13;86.50;100313.44;2339539;68;20283;-80
2021/10/10 00:24:07;;;;;;;8.06;5.76;;;;;;;5.10;86.24;100308.19;2333972;68;20253;-80
2021/10/10 00:27:10;;;;;;;9.84;5.56;;;;;;;5.08;86.04;100304.69;2335949;68;20249;-80
2021/10/10 00:30:13;;;;;;;7.68;5.61;;;;;;;5.04;85.92;100306.31;2334343;69;20384;-81
2021/10/10 00:33:16;;;;;;;7.75;5.56;;;;;;;4.98;85.90;100316.38;2342463;68;20308;-80
2021/10/10 00:36:18;;;;;;;5.47;4.91;;;;;;;4.91;85.98;100304.16;2340871;68;20261;-80
2021/10/10 00:39:21;;;;;;;5.90;5.28;;;;;;;4.85;86.25;100306.53;2350660;68;20287;-80
2021/10/10 00:42:23;;;;;;;7.14;5.80;;;;;;;4.81;86.49;100300.38;2363148;68;20236;-81
2021/10/10 00:45:26;;;;;;;8.50;5.45;;;;;;;4.81;86.91;100300.38;2341677;65;41885;-80
2021/10/10 00:48:29;;;;;;;8.18;5.39;;;;;;;4.80;87.13;100305.47;2340316;68;20255;-81
2021/10/10 00:51:34;;;;;;;9.30;5.41;;;;;;;4.79;87.28;100303.75;2351199;68;20280;-81
2021/10/10 00:54:40;;;;;;;6.81;5.24;;;;;;;4.76;87.31;100296.78;2348489;68;20243;-81
2021/10/10 00:57:45;;;;;;;6.51;4.51;;;;;;;4.74;87.04;100301.03;2341531;68;20251;-81
2021/10/10 01:00:53;;;;;;;7.76;5.05;;;;;;;4.73;86.65;100300.97;2353007;66;39613;-81
2021/10/10 01:03:56;;;;;;;7.60;5.07;;;;;;;4.69;86.35;100288.84;2343758;68;20243;-81
2021/10/10 01:07:00;;;;;;;6.70;5.18;;;;;;;4.63;86.14;100286.03;2339996;68;20270;-81
2021/10/10 01:10:08;;;;;;;8.85;5.24;;;;;;;4.61;86.18;100293.72;2340989;68;20426;-80
2021/10/10 01:13:13;;;;;;;8.44;5.04;;;;;;;4.58;86.17;100292.72;2344631;68;20291;-81
2021/10/10 01:20:46;;;;;;;6.11;4.25;;;;;;;4.46;86.50;100286.34;2338669;68;20265;-81
2021/10/10 01:23:49;;;;;;;7.85;4.80;;;;;;;4.43;87.05;100295.66;2343415;68;20275;-80
2021/10/10 01:26:52;;;;;;;10.21;4.84;;;;;;;4.43;87.40;100287.94;2343188;68;20296;-81
2021/10/10 01:29:54;;;;;;;8.31;4.89;;;;;;;4.40;87.49;100291.28;2339790;68;20232;-80
2021/10/10 01:32:59;;;;;;;6.05;4.78;;;;;;;4.39;87.55;100288.66;2345580;65;43476;-80
2021/10/10 01:36:03;;;;;;;8.29;4.55;;;;;;;4.38;87.58;100289.47;2346308;68;20350;-81
2021/10/10 01:39:05;;;;;;;5.81;4.65;;;;;;;4.33;87.31;100289.34;2339943;68;20263;-81
2021/10/10 01:42:08;;;;;;;6.72;5.01;;;;;;;4.33;87.33;100286.75;2342620;68;20255;-80
2021/10/10 01:45:17;;;;;;;7.16;4.72;;;;;;;4.33;86.87;100286.75;2349982;68;20239;-82
2021/10/10 01:48:19;;;;;;;7.69;4.36;;;;;;;4.25;86.46;100277.88;2346424;68;20324;-81
2021/10/10 01:51:22;;;;;;;6.25;4.70;;;;;;;4.21;86.46;100274.34;2347144;68;20152;-81
2021/10/10 01:54:24;;;;;;;8.45;4.82;;;;;;;4.12;86.53;100280.84;2345878;68;20236;-80
2021/10/10 01:57:27;;;;;;;6.19;4.90;;;;;;;4.08;86.88;100281.56;2343360;68;20259;-80
2021/10/10 02:00:30;;;;;;;8.59;4.93;;;;;;;4.12;87.23;100276.56;2347379;68;20299;-81
2021/10/10 02:03:32;;;;;;;10.18;4.94;;;;;;;4.08;87.36;100271.28;2347353;68;20272;-81
2021/10/10 02:06:35;;;;;;;7.80;4.69;;;;;;;4.06;87.39;100276.38;2341403;68;20244;-80
2021/10/10 02:09:41;;;;;;;7.88;5.45;;;;;;;4.03;87.38;100273.69;2344989;68;20235;-81
2021/10/10 02:12:43;;;;;;;6.30;4.68;;;;;;;4.03;87.59;100265.09;2347474;68;20299;-81
2021/10/10 02:15:46;;;;;;;6.84;4.66;;;;;;;4.02;87.65;100265.94;2339266;68;20314;-80
2021/10/10 02:18:49;;;;;;;5.96;4.43;;;;;;;3.99;87.65;100256.41;2339855;68;20255;-81
2021/10/10 02:21:52;;;;;;;8.69;5.06;;;;;;;3.95;87.49;100259.72;2351997;68;20259;-82
2021/10/10 02:24:55;;;;;;;5.32;4.30;;;;;;;3.91;87.50;100262.97;2348639;68;20375;-81
2021/10/10 02:27:57;;;;;;;5.06;4.53;;;;;;;3.88;87.26;100261.16;2345452;68;20346;-80
2021/10/10 02:31:00;;;;;;;4.80;3.88;;;;;;;3.84;87.02;100259.31;2350668;68;20251;-80
2021/10/10 02:34:03;;;;;;;7.51;4.94;;;;;;;3.78;86.77;100264.22;2345768;68;20279;-81
2021/10/10 02:37:07;;;;;;;7.96;4.35;;;;;;;3.71;86.74;100261.38;2345459;68;20247;-81
2021/10/10 02:40:11;;;;;;;5.01;4.39;;;;;;;3.66;86.92;100263.78;2341371;68;20303;-81
2021/10/10 02:43:13;;;;;;;7.54;4.19;;;;;;;3.62;86.98;100264.47;2347079;68;20280;-82
2021/10/10 02:46:16;;;;;;;7.16;4.80;;;;;;;3.60;86.68;100273.81;2350965;68;20243;-81
2021/10/10 02:49:19;;;;;;;6.71;4.68;;;;;;;3.55;86.54;100260.78;2342030;68;20323;-80
2021/10/10 02:52:23;;;;;;;5.35;4.41;;;;;;;3.55;86.35;100260.78;2342532;68;20323;-81
2021/10/10 02:55:26;;;;;;;6.21;4.64;;;;;;;3.48;86.37;100258.81;2350123;68;20293;-81
2021/10/10 02:58:29;;;;;;;7.44;4.09;;;;;;;3.45;86.46;100260.41;2342666;68;20251;-80
2021/10/10 03:01:32;;;;;;;8.70;4.22;;;;;;;3.40;86.61;100261.91;2340627;68;20316;-81
2021/10/10 03:04:35;;;;;;;7.16;4.22;;;;;;;3.36;86.78;100255.78;2348862;68;20255;-80
2021/10/10 03:07:38;;;;;;;5.36;4.35;;;;;;;3.30;86.88;100251.28;2341521;68;20326;-81
2021/10/10 03:10:41;;;;;;;7.11;4.44;;;;;;;3.31;87.07;100258.19;2345058;68;20282;-81
2021/10/10 03:13:44;;;;;;;6.26;4.56;;;;;;;3.29;87.05;100254.69;2351966;68;20406;-81
2021/10/10 03:16:47;;;;;;;6.55;4.31;;;;;;;3.23;86.96;100251.91;2343551;68;20347;-80
2021/10/10 03:19:50;;;;;;;7.32;4.44;;;;;;;3.21;87.15;100255.19;2344750;68;20259;-80
2021/10/10 03:22:52;;;;;;;10.56;5.20;;;;;;;3.18;87.20;100257.63;2350168;68;20352;-81
2021/10/10 03:25:55;;;;;;;7.04;4.89;;;;;;;3.15;87.25;100258.41;2345858;68;20259;-80
2021/10/10 03:28:58;;;;;;;5.82;4.15;;;;;;;3.15;87.55;100260.09;2339250;68;20300;-81
2021/10/10 03:32:00;;;;;;;7.72;4.00;;;;;;;3.15;87.53;100267.78;2345296;68;20311;-80
2021/10/10 03:35:03;;;;;;;7.14;4.55;;;;;;;3.14;87.33;100263.47;2344904;68;20255;-80
2021/10/10 03:38:06;;;;;;;5.89;4.49;;;;;;;3.10;86.99;100259.91;2343452;68;20252;-80
2021/10/10 03:41:09;;;;;;;6.74;4.18;;;;;;;3.08;86.72;100260.69;2339628;68;20273;-81
2021/10/10 03:44:12;;;;;;;5.66;3.61;;;;;;;3.07;86.81;100251.22;2343048;68;20286;-81
2021/10/10 03:47:15;;;;;;;6.76;4.19;;;;;;;3.00;86.72;100257.78;2347351;65;35495;-80
2021/10/10 03:50:17;;;;;;;6.51;4.54;;;;;;;2.94;86.73;100253.31;2340371;68;20347;-80
2021/10/10 03:53:23;;;;;;;6.34;4.07;;;;;;;2.91;86.90;100255.75;2350851;68;20247;-80
2021/10/10 03:56:26;;;;;;;5.72;3.96;;;;;;;2.89;87.08;100252.25;2347964;68;20296;-80
2021/10/10 03:59:29;;;;;;;5.29;3.80;;;;;;;2.90;87.10;100259.13;2342124;68;20243;-80
2021/10/10 04:02:32;;;;;;;8.02;4.32;;;;;;;2.86;86.80;100259.81;2342950;65;37092;-80
2021/10/10 04:08:43;;;;;;;6.55;4.14;;;;;;;2.85;86.50;100262.31;2340637;68;20296;-77
2021/10/10 04:11:46;;;;;;;5.19;4.13;;;;;;;2.81;86.35;100258.75;2345402;68;20355;-78
2021/10/10 04:14:48;;;;;;;6.95;4.07;;;;;;;2.75;86.35;100265.34;2344262;68;20149;-79
2021/10/10 04:17:51;;;;;;;5.19;4.16;;;;;;;2.72;86.30;100263.53;2352400;65;25553;-78
2021/10/10 04:20:55;;;;;;;5.65;4.11;;;;;;;2.68;86.27;100264.19;2348977;68;20251;-79
2021/10/10 04:23:58;;;;;;;5.39;4.16;;;;;;;2.69;86.39;100268.50;2355875;68;20247;-78
2021/10/10 04:27:00;;;;;;;6.84;4.01;;;;;;;2.65;86.32;100271.75;2341283;68;20303;-78
2021/10/10 04:30:06;;;;;;;5.66;4.09;;;;;;;2.63;86.42;100263.13;2340567;68;20299;-79
2021/10/10 04:33:09;;;;;;;7.71;3.72;;;;;;;2.62;86.46;100271.63;2351482;68;20279;-78
2021/10/10 04:36:12;;;;;;;7.49;4.21;;;;;;;2.56;86.45;100267.13;2343817;68;20315;-78
2021/10/10 04:39:14;;;;;;;8.32;4.20;;;;;;;2.57;86.66;100271.44;2348516;68;20267;-78
2021/10/10 04:42:17;;;;;;;6.65;4.34;;;;;;;2.52;86.65;100267.84;2340724;68;20240;-78
2021/10/10 04:45:20;;;;;;;6.22;4.20;;;;;;;2.50;86.78;100261.72;2346662;68;20243;-79
2021/10/10 06:10:36;;;;;;;5.45;3.75;;;;;;;2.05;87.72;100273.47;2345077;68;20246;-81
2021/10/10 06:13:39;;;;;;;5.69;3.99;;;;;;;2.09;87.65;100272.78;2348898;68;20247;-81
2021/10/10 06:16:42;;;;;;;5.49;4.22;;;;;;;2.13;87.63;100282.34;2351981;68;20287;-80
2021/10/10 06:19:45;;;;;;;7.00;4.16;;;;;;;2.19;87.70;100277.53;2347120;68;20254;-81
2021/10/10 06:22:48;;;;;;;4.96;3.69;;;;;;;2.25;87.80;100275.22;2346298;68;20282;-81
2021/10/10 06:25:54;;;;;;;6.10;3.95;;;;;;;2.31;87.86;100284.84;2348381;68;20272;-82
2021/10/10 06:28:57;;;;;;;6.24;4.46;;;;;;;2.38;87.72;100290.31;2341900;68;20320;-81
2021/10/10 06:32:01;;;;;;;4.96;3.91;;;;;;;2.46;87.80;100289.75;2353617;68;20264;-80
2021/10/10 08:37:52;;;;;;;7.45;6.34;;;;;;;11.82;65.76;100321.94;2329819;69;20195;-83
2021/10/10 11:36:16;;;;;;;6.30;4.25;;;;;;;16.88;50.06;100262.78;2315941;68;20246;-80
2021/10/10 11:39:20;;;;;;;8.24;4.40;;;;;;;16.96;50.13;100261.78;2351080;68;20198;-80
2021/10/10 11:42:22;;;;;;;6.85;4.13;;;;;;;16.93;49.43;100260.09;2343328;68;20222;-81
2021/10/10 11:45:28;;;;;;;5.85;4.31;;;;;;;16.96;49.69;100254.78;2340285;68;20155;-80
2021/10/10 14:24:32;;;;;;;4.93;2.91;;;;;;;16.70;48.08;100167.81;2311626;68;20198;31
2021/10/10 14:27:35;;;;;;;4.97;3.47;;;;;;;16.55;47.19;100155.78;2336644;68;20167;-80
2021/10/10 14:30:39;;;;;;;7.22;3.28;;;;;;;16.54;48.81;100161.91;2330600;68;20579;-80
2021/10/10 14:34:12;;;;;;;5.24;3.10;;;;;;;16.54;51.47;100169.78;2338632;68;20222;-80
2021/10/10 14:38:37;;;;;;;3.80;3.44;;;;;;;16.52;52.04;100168.94;2332268;68;20154;-79
2021/10/10 14:46:29;;;;;;;4.86;2.78;;;;;;;16.51;54.18;100167.19;2339742;66;20150;-81
2021/10/10 14:50:42;;;;;;;3.79;2.65;;;;;;;16.52;52.71;100168.94;2335582;68;20171;-80
2021/10/10 14:55:07;;;;;;;5.86;2.56;;;;;;;16.47;49.92;100165.50;2335629;68;20147;-80
2021/10/10 14:58:56;;;;;;;7.19;2.91;;;;;;;16.47;52.30;100168.13;2323583;68;20168;-78
2021/10/10 15:01:59;;;;;;;7.04;3.30;;;;;;;16.44;53.11;100163.81;2319026;68;958738;-78
2021/10/10 15:05:04;;;;;;;5.40;3.36;;;;;;;16.45;53.22;100170.78;2325367;68;20146;-79
2021/10/10 15:08:08;;;;;;;4.95;2.79;;;;;;;16.42;53.31;100173.44;2331004;68;20151;-79
2021/10/10 15:11:10;;;;;;;10.29;3.34;;;;;;;16.33;55.55;100163.09;2330500;68;21047;-79
2021/10/10 15:14:13;;;;;;;5.45;3.13;;;;;;;16.25;56.63;100160.59;2328730;68;20151;-79
2021/10/10 15:17:15;;;;;;;6.95;3.70;;;;;;;16.24;57.25;100160.63;2328238;68;22274;-79
2021/10/10 15:20:18;;;;;;;5.25;2.97;;;;;;;16.22;57.86;100157.16;2331245;68;20210;-79
2021/10/10 15:23:21;;;;;;;8.90;3.78;;;;;;;16.12;56.14;100150.31;2327974;68;20151;-79
2021/10/10 15:26:24;;;;;;;3.65;2.90;;;;;;;16.16;56.27;100162.50;2331543;68;20151;-79
2021/10/10 15:29:26;;;;;;;3.95;2.47;;;;;;;16.18;56.26;100161.59;2331460;68;20163;-79
2021/10/10 15:32:50;;;;;;;6.44;2.72;;;;;;;16.16;59.60;100159.88;2328826;65;23867;-79
2021/10/10 15:35:53;;;;;;;4.00;2.41;;;;;;;16.08;60.95;100159.13;2328791;68;20151;-78
2021/10/10 15:38:56;;;;;;;5.32;2.70;;;;;;;15.98;62.15;100153.16;2328207;68;20213;-79
2021/10/10 15:41:58;;;;;;;6.21;2.81;;;;;;;15.94;62.28;100147.06;2327773;68;20167;-78
2021/10/10 15:45:02;;;;;;;3.83;2.95;;;;;;;15.92;62.32;100148.00;2327465;68;20995;-78
2021/10/10 15:48:05;;;;;;;5.38;3.15;;;;;;;15.86;62.24;100154.19;2329374;68;20173;-78
2021/10/10 15:51:09;;;;;;;4.32;2.49;;;;;;;15.86;62.61;100148.09;2330368;68;20207;-78
2021/10/10 15:54:11;;;;;;;4.13;2.49;;;;;;;15.88;62.20;100146.31;2329725;68;20914;-78
2021/10/10 15:57:14;;;;;;;4.10;2.90;;;;;;;15.81;62.05;100137.69;2330019;68;20234;-78
2021/10/10 16:00:17;;;;;;;4.55;3.17;;;;;;;15.43;62.21;100143.34;2326139;68;20573;-78
2021/10/10 16:03:19;;;;;;;4.01;2.69;;;;;;;14.93;63.61;100141.31;2327664;66;23198;-78
2021/10/10 16:06:22;;;;;;;4.81;3.21;;;;;;;14.56;64.88;100138.19;2327556;68;20139;-78
2021/10/10 16:09:24;;;;;;;4.71;2.61;;;;;;;14.25;65.93;100133.16;2329682;68;20151;-78
2021/10/10 16:12:27;;;;;;;3.15;2.85;;;;;;;13.90;67.61;100143.84;2325697;68;20139;-78
2021/10/10 16:15:30;;;;;;;6.74;2.97;;;;;;;13.59;68.57;100140.50;2327073;65;25689;-78
2021/10/10 16:18:32;;;;;;;6.55;2.75;;;;;;;13.38;69.38;100138.00;2329596;68;20163;-78
2021/10/10 16:21:36;;;;;;;6.54;3.14;;;;;;;13.15;70.37;100148.47;2328629;68;20637;-78
2021/10/10 16:24:39;;;;;;;6.09;2.75;;;;;;;12.95;71.22;100144.19;2329236;68;20680;-78
2021/10/10 16:27:42;;;;;;;4.89;2.29;;;;;;;12.81;71.34;100139.84;2329084;68;20775;-78
2021/10/10 16:30:45;;;;;;;7.66;2.85;;;;;;;12.58;71.85;100142.50;2326746;65;22523;-78
2021/10/10 16:33:50;;;;;;;3.80;3.09;;;;;;;12.33;72.85;100137.25;2328987;68;20675;-78
2021/10/10 16:37:01;;;;;;;5.61;2.72;;;;;;;12.18;73.83;100142.44;2328666;68;20303;-78
2021/10/10 16:43:32;;;;;;;6.41;2.84;;;;;;;11.88;74.88;100155.44;2320904;68;20196;-78
2021/10/10 16:46:34;;;;;;;2.80;2.50;;;;;;;11.72;75.25;100159.69;2326905;65;26203;-78
2021/10/10 16:49:39;;;;;;;4.19;2.85;;;;;;;11.57;75.74;100157.88;2330147;68;20172;-78
2021/10/10 16:52:43;;;;;;;6.07;2.92;;;;;;;11.40;76.17;100165.63;2328081;68;20203;-77
2021/10/10 16:55:45;;;;;;;4.16;2.67;;;;;;;11.25;76.43;100165.53;2327948;68;20219;-78
2021/10/10 16:58:49;;;;;;;3.83;2.74;;;;;;;11.16;76.83;100178.50;2330111;68;20901;-77
2021/10/10 17:01:52;;;;;;;2.97;2.65;;;;;;;11.04;77.08;100170.63;2327110;65;23619;-78
2021/10/10 17:04:55;;;;;;;5.00;2.66;;;;;;;10.90;77.36;100173.13;2327924;68;20162;-79
2021/10/10 17:07:58;;;;;;;3.60;2.70;;;;;;;10.76;77.54;100175.63;2330698;68;20202;-78
2021/10/10 17:11:01;;;;;;;4.01;2.44;;;;;;;10.62;77.72;100182.47;2329633;68;20360;-78
2021/10/10 17:14:12;;;;;;;3.17;2.72;;;;;;;10.48;78.20;100195.31;2329005;68;21228;-78
2021/10/10 17:17:15;;;;;;;3.11;2.61;;;;;;;10.38;78.79;100195.22;2327279;66;20473;-78
2021/10/10 17:20:18;;;;;;;12.65;2.97;;;;;;;10.26;79.12;100193.38;2329906;68;20860;-78
2021/10/10 17:23:21;;;;;;;6.03;3.01;;;;;;;10.15;79.21;100197.56;2328319;68;20768;-78
2021/10/10 17:26:24;;;;;;;3.88;3.22;;;;;;;10.02;79.25;100201.72;2330672;68;20614;-78
2021/10/10 17:29:28;;;;;;;5.72;2.84;;;;;;;9.91;79.37;100203.34;2329551;68;20207;-78
2021/10/10 17:32:31;;;;;;;3.46;3.11;;;;;;;9.77;79.50;100207.50;2327339;66;28505;-78
2021/10/10 17:35:34;;;;;;;3.36;2.86;;;;;;;9.67;80.09;100203.91;2327704;68;20150;-78
2021/10/10 17:38:36;;;;;;;3.16;2.66;;;;;;;9.57;80.30;100204.69;2329262;68;20169;-78
2021/10/10 17:41:39;;;;;;;3.55;2.75;;;;;;;9.47;80.59;100215.75;2328395;68;20214;-78
2021/10/10 17:44:42;;;;;;;3.13;2.80;;;;;;;9.40;81.06;100201.88;2329599;68;20300;-78
2021/10/10 17:47:44;;;;;;;4.74;3.13;;;;;;;9.29;81.39;100201.69;2328170;68;21143;-78
2021/10/10 17:50:47;;;;;;;4.18;2.71;;;;;;;9.22;81.66;100202.47;2328136;68;20573;-78
2021/10/10 17:53:49;;;;;;;4.09;2.76;;;;;;;9.14;81.86;100205.78;2328111;68;20211;-78
2021/10/10 17:56:52;;;;;;;3.92;2.51;;;;;;;9.04;82.00;100216.03;2327692;68;20175;-78
2021/10/10 18:00:04;;;;;;;3.14;2.84;;;;;;;8.97;82.23;100221.09;2328694;68;20147;-78
2021/10/10 18:13:16;;;;;;;4.70;2.41;;;;;;;8.60;82.87;100224.81;2328338;68;20139;-78
2021/10/10 18:16:19;;;;;;;3.81;2.83;;;;;;;8.53;82.90;100220.38;2327406;66;21643;-78
2021/10/10 18:19:22;;;;;;;4.11;2.80;;;;;;;8.46;82.80;100220.28;2328955;68;20179;-78
2021/10/10 18:22:25;;;;;;;7.81;5.47;;;;;;;8.37;82.64;100217.53;2327386;68;20213;-78
2021/10/10 18:25:28;;;;;;;4.05;3.16;;;;;;;8.33;82.78;100230.34;2322777;68;20197;-78
2021/10/10 18:28:31;;;;;;;5.61;3.46;;;;;;;8.26;83.17;100231.06;2339985;68;20154;-80
2021/10/10 18:31:34;;;;;;;3.44;3.10;;;;;;;8.17;83.31;100231.78;2351432;68;20205;-80
2021/10/10 18:34:37;;;;;;;3.06;2.46;;;;;;;8.08;83.38;100235.09;2337593;68;20335;-81
2021/10/10 18:37:40;;;;;;;4.19;3.09;;;;;;;8.03;83.73;100235.81;2342730;68;20143;-80
2021/10/10 18:40:43;;;;;;;4.85;3.25;;;;;;;7.97;84.19;100231.41;2346024;68;20171;-81
2021/10/10 18:43:47;;;;;;;9.09;3.33;;;;;;;7.93;84.57;100232.19;2338609;68;20210;-80
2021/10/10 18:46:53;;;;;;;6.28;3.24;;;;;;;7.89;84.81;100233.81;2351532;68;20410;-81
2021/10/10 18:49:56;;;;;;;3.91;3.17;;;;;;;7.85;85.06;100239.78;2339823;68;20155;-81
2021/10/10 18:53:00;;;;;;;4.66;3.29;;;;;;;7.82;85.10;100228.50;2343794;68;20163;-81
2021/10/10 18:56:03;;;;;;;5.41;3.30;;;;;;;7.75;85.04;100237.88;2341562;68;20271;-81
2021/10/10 18:59:08;;;;;;;3.45;3.05;;;;;;;7.68;84.96;100246.31;2347870;68;20464;-80
2021/10/10 19:02:13;;;;;;;4.78;3.11;;;;;;;7.63;84.97;100241.91;2336729;66;40023;-81
2021/10/10 19:05:17;;;;;;;5.60;3.04;;;;;;;7.56;85.24;100246.09;2331925;68;20259;-81
2021/10/10 19:08:20;;;;;;;5.53;3.29;;;;;;;7.51;85.65;100258.00;2340260;68;20235;-81
2021/10/10 19:11:24;;;;;;;4.03;3.06;;;;;;;7.46;85.54;100255.31;2336181;68;20385;-81
2021/10/10 19:14:28;;;;;;;4.84;3.41;;;;;;;7.41;85.65;100254.38;2343045;68;20356;-81
2021/10/10 19:17:34;;;;;;;9.52;3.81;;;;;;;7.33;85.59;100257.59;2343126;66;35103;-81
2021/10/10 19:20:37;;;;;;;7.49;4.01;;;;;;;7.28;85.79;100271.28;2350490;68;20259;-81
2021/10/10 19:23:47;;;;;;;4.59;3.63;;;;;;;7.25;85.91;100267.78;2342191;68;20252;-81
2021/10/10 19:26:50;;;;;;;4.41;3.75;;;;;;;7.18;85.91;100261.59;2342471;68;20244;-80
2021/10/10 19:29:54;;;;;;;6.22;3.85;;;;;;;7.13;86.11;100270.06;2341705;68;20286;-81
2021/10/10 19:33:00;;;;;;;5.19;3.86;;;;;;;7.09;86.31;100273.41;2344342;66;60720;-81
2021/10/10 19:36:05;;;;;;;6.30;3.99;;;;;;;7.04;86.33;100268.16;2345615;68;20263;-80
2021/10/10 20:50:12;;;;;;;6.88;4.38;;;;;;;5.96;87.13;100275.63;2311165;68;20342;-84
2021/10/10 20:54:12;;;;;;;6.30;4.68;;;;;;;5.87;87.11;100278.78;2336100;68;20233;-81
2021/10/10 20:58:03;;;;;;;8.32;5.06;;;;;;;5.81;87.24;100282.91;2343425;68;20334;-80
2021/10/10 21:02:26;;;;;;;7.24;4.95;;;;;;;5.76;87.28;100275.03;2346590;68;20389;-81
2021/10/10 21:06:24;;;;;;;7.40;4.79;;;;;;;5.69;87.43;100275.66;2360768;68;20412;-81
2021/10/10 21:10:23;;;;;;;7.04;5.32;;;;;;;5.65;87.57;100281.56;2341597;68;20412;-80
2021/10/10 21:14:15;;;;;;;6.50;4.60;;;;;;;5.66;87.43;100273.88;2344778;68;20343;-80
2021/10/10 21:18:02;;;;;;;7.63;5.05;;;;;;;5.70;86.83;100274.84;2348638;68;768500;-81
2021/10/10 21:22:11;;;;;;;7.46;4.71;;;;;;;5.69;86.52;100273.97;2349933;68;20297;-80
2021/10/10 21:25:35;;;;;;;7.65;4.95;;;;;;;5.73;86.96;100272.34;2357475;68;20260;-81
2021/10/10 21:29:29;;;;;;;7.01;4.91;;;;;;;5.69;86.84;100268.81;2346214;68;20115;-80
2021/10/10 21:37:23;;;;;;;6.96;4.80;;;;;;;5.52;86.77;100277.75;2337564;68;20248;-80
2021/10/10 21:41:19;;;;;;;6.25;4.84;;;;;;;5.41;86.66;100277.44;2336555;68;20332;-80
2021/10/10 21:45:10;;;;;;;7.88;5.22;;;;;;;5.37;86.77;100277.28;2346891;68;20374;-80
2021/10/10 21:49:09;;;;;;;6.30;5.10;;;;;;;5.27;86.81;100277.84;2355103;68;20247;-80
2021/10/10 21:53:03;;;;;;;8.54;5.16;;;;;;;5.22;86.99;100277.72;2361691;68;20318;-80
2021/10/10 21:57:15;;;;;;;6.38;4.43;;;;;;;5.18;86.92;100280.97;2363255;68;20320;-81
2021/10/10 22:05:36;;;;;;;6.54;4.75;;;;;;;5.02;86.57;100289.03;2349654;68;20370;-81
2021/10/10 22:09:32;;;;;;;7.18;5.20;;;;;;;4.93;86.68;100291.34;2340541;69;20241;-81
2021/10/10 22:13:15;;;;;;;6.61;4.85;;;;;;;4.83;86.92;100285.88;2340047;69;20346;-81
2021/10/10 22:16:47;;;;;;;7.46;4.84;;;;;;;4.83;87.12;100279.84;2326414;69;1038902;-80
2021/10/10 22:20:28;;;;;;;;;;;;;;;4.78;87.03;100274.56;2333626;69;20349;-80
2021/10/10 22:33:05;;;;;;;8.24;5.21;;;;;;;4.62;87.58;100287.75;2321844;69;1003329;-80
2021/10/10 22:37:19;;;;;;;7.45;4.85;;;;;;;4.57;87.58;100291.00;2329597;69;20112;-81
2021/10/10 22:41:18;;;;;;;6.53;4.18;;;;;;;4.50;87.65;100279.63;2317804;69;20375;-81
2021/10/10 22:49:03;;;;;;;7.04;4.22;;;;;;;4.46;87.50;100283.78;2355069;68;49046;-80
2021/10/10 22:52:35;;;;;;;5.56;4.09;;;;;;;4.37;87.34;100283.47;2345934;68;20379;-79
2021/10/10 22:57:01;;;;;;;8.26;4.43;;;;;;;4.34;87.51;100283.38;2344549;68;20320;-81
2021/10/10 23:01:28;;;;;;;5.97;4.44;;;;;;;4.24;87.29;100292.44;2336096;68;20229;-80
2021/10/10 23:13:53;;;;;;;5.21;3.94;;;;;;;4.17;87.18;100280.19;2337804;68;20240;-81
2021/10/10 23:22:27;;;;;;;6.22;4.53;;;;;;;4.06;87.36;100272.91;2338008;68;20180;-80
2021/10/10 23:31:23;;;;;;;7.51;4.15;;;;;;;3.91;87.18;100273.25;2343999;68;20494;-80
